Amantha, North Carolina
Current Conditions -  °F | °C
As of 10:40 PM on Saturday 25 Oct 2014 (Local Time) from KTNB Reporting Station
Clear Clear  
Wind Chill: 13°   Ceiling: Unl
Heat Index: 13°   Visibility: 10mi
Dew Point:   Wind: 10mph
Humidity: 68%   Direction: 300°WNW
Pressure: 30.03"   Gusts: NA
Location:  36.2666°N, 81.8431°W
Report Text: KTNB 260240Z AUTO 30009KT 10SM CLR 13/07 A3003 RMK AO2 T01250067
Loading
Personal Weather Stations






























Interactive Weather Map
Tropical Storm Tracking
New forecast layout! Learn more

10-Day Weather Forecast

Advertisements
Track Severe Weather on mobile